Ridgetown, Canada
Current Conditions -  °F | °C
As of 7:00 AM on Thursday 18 Dec 2014 (Local Time) from CYCK Reporting Station
Overcast Overcast  
Wind Chill: 23°   Ceiling: 1900
Heat Index: 30°   Visibility: 9mi
Dew Point: 27°   Wind: 8mph
Humidity: 86%   Direction: 300°WNW
Pressure: 30.17"   Gusts: NA
Location:  42.43°N, 81.88°W
Report Text: CYCK 181200Z AUTO 30007KT 9SM OVC019 M01/M03 A3017 RMK SLP224
Loading
Personal Weather Stations






























Interactive Weather Map New forecast layout! Learn more

10-Day Weather Forecast

Advertisements
Track Severe Weather on mobile